Time;durP1;ratioP1;P1;durP2;ratioP2;P2;SDS_P1;SDS_P2;PMS_P1;PMS_P2;Temp;Humidity;BMP_temperature;BMP_pressure;BME280_temperature;BME280_humidity;BME280_pressure;Samples;Min_cycle;Max_cycle;Signal;HPM_P1;HPM_P2
2022/11/18 00:01:29;;;;;;;2.97;1.92;;;19.60;58.70;;;;;;6268721;28;20028;-68
2022/11/18 00:04:29;;;;;;;2.10;1.60;;;19.70;58.80;;;;;;6268739;28;20153;-69
2022/11/18 00:07:30;;;;;;;2.90;2.20;;;19.70;58.80;;;;;;6268878;28;20048;-68
2022/11/18 00:10:31;;;;;;;2.75;2.10;;;19.70;58.80;;;;;;6268445;28;20029;-68
2022/11/18 00:16:51;;;;;;;2.45;1.90;;;19.70;58.80;;;;;;6268272;28;20036;-68
2022/11/18 00:19:51;;;;;;;2.67;1.85;;;19.60;58.70;;;;;;6268605;28;20048;-68
2022/11/18 00:22:52;;;;;;;2.10;1.75;;;19.70;58.80;;;;;;6268561;28;20321;-67
2022/11/18 00:25:52;;;;;;;1.73;1.60;;;19.70;58.80;;;;;;6268268;28;20019;-68
2022/11/18 00:28:53;;;;;;;2.42;1.90;;;19.70;58.80;;;;;;6268208;28;20029;-69
2022/11/18 00:31:54;;;;;;;2.60;1.85;;;19.60;58.70;;;;;;6267883;28;20025;-68
2022/11/18 00:34:55;;;;;;;3.67;2.00;;;19.70;58.80;;;;;;6266517;28;20090;-68
2022/11/18 00:37:56;;;;;;;2.33;1.80;;;19.70;58.80;;;;;;6268135;28;20090;-69
2022/11/18 00:41:07;;;;;;;2.50;1.98;;;19.70;58.80;;;;;;6267504;28;20462;-68
2022/11/18 00:44:07;;;;;;;2.45;1.80;;;19.70;58.80;;;;;;6267891;28;20421;-69
2022/11/18 00:47:08;;;;;;;1.90;1.63;;;19.70;58.80;;;;;;6267808;28;20811;-68
2022/11/18 00:50:09;;;;;;;2.45;2.05;;;19.70;58.80;;;;;;6267881;28;20095;-68
2022/11/18 00:53:09;;;;;;;2.25;1.90;;;19.60;58.70;;;;;;6267384;28;20132;-68
2022/11/18 00:56:10;;;;;;;3.15;1.92;;;19.60;58.70;;;;;;6267624;28;20033;-68
2022/11/18 00:59:11;;;;;;;2.88;2.10;;;19.70;58.80;;;;;;6267712;28;20396;-69
2022/11/18 01:02:11;;;;;;;2.30;1.77;;;19.70;58.80;;;;;;6267416;28;20437;-69
2022/11/18 01:05:12;;;;;;;2.22;1.70;;;19.70;58.80;;;;;;6267427;28;20057;-68
2022/11/18 01:08:13;;;;;;;4.60;1.90;;;19.70;58.70;;;;;;6267265;28;20029;-68
2022/11/18 01:14:33;;;;;;;2.90;1.95;;;19.70;58.80;;;;;;6267056;28;20116;-68
2022/11/18 01:17:34;;;;;;;2.13;1.65;;;19.70;58.80;;;;;;6267896;28;20548;-68
2022/11/18 01:20:35;;;;;;;2.28;1.73;;;19.70;58.80;;;;;;6267102;28;20067;-69
2022/11/18 01:23:35;;;;;;;2.22;1.90;;;19.70;58.80;;;;;;6267650;28;20102;-68
2022/11/18 01:26:36;;;;;;;2.22;1.83;;;19.70;58.80;;;;;;6267190;28;20032;-68
2022/11/18 01:29:37;;;;;;;2.42;2.05;;;19.70;58.80;;;;;;6267456;28;20075;-68
2022/11/18 01:32:37;;;;;;;2.10;1.50;;;19.70;58.80;;;;;;6266895;28;20047;-68
2022/11/18 01:35:40;;;;;;;3.53;2.17;;;19.60;58.70;;;;;;6267310;28;20539;-68
2022/11/18 01:38:41;;;;;;;2.22;1.70;;;19.70;58.80;;;;;;6266922;28;20083;-67
2022/11/18 01:41:41;;;;;;;2.72;2.00;;;19.70;58.70;;;;;;6267404;28;20029;-68
2022/11/18 01:45:13;;;;;;;2.75;1.85;;;19.70;58.70;;;;;;6267296;28;20547;-68
2022/11/18 01:48:20;;;;;;;2.60;2.00;;;19.70;58.70;;;;;;6242473;28;20021;-68
2022/11/18 01:51:28;;;;;;;3.38;1.83;;;19.70;58.80;;;;;;6252335;28;20090;-68
2022/11/18 01:54:37;;;;;;;2.70;1.98;;;19.70;58.70;;;;;;6266422;28;20068;-68
2022/11/18 01:57:39;;;;;;;2.55;1.95;;;19.70;58.70;;;;;;6267052;28;20040;-68
2022/11/18 02:00:40;;;;;;;2.22;1.73;;;19.70;58.70;;;;;;6267569;28;20028;-68
2022/11/18 02:03:42;;;;;;;2.35;1.80;;;19.70;58.70;;;;;;6268062;28;20025;-68
2022/11/18 02:06:44;;;;;;;2.10;1.73;;;19.70;58.70;;;;;;6272151;28;20025;-68
2022/11/18 02:09:45;;;;;;;2.42;1.90;;;19.60;58.70;;;;;;6271471;28;20027;-68
2022/11/18 02:12:47;;;;;;;2.70;2.20;;;19.70;58.70;;;;;;6271650;28;20017;-68
2022/11/18 02:16:06;;;;;;;1.83;1.65;;;19.70;58.70;;;;;;6271483;28;20068;-67
2022/11/18 02:19:22;;;;;;;1.80;1.60;;;19.70;58.70;;;;;;6271245;28;20033;-69
2022/11/18 02:22:54;;;;;;;2.10;1.80;;;19.70;58.70;;;;;;6271378;28;20033;-68
2022/11/18 02:26:09;;;;;;;2.25;1.80;;;19.70;58.70;;;;;;6271630;28;20029;-68
2022/11/18 02:29:19;;;;;;;2.80;1.90;;;19.70;58.70;;;;;;6271051;28;20028;-68
2022/11/18 02:32:31;;;;;;;1.98;1.50;;;19.70;58.70;;;;;;6271606;28;20033;-68
2022/11/18 02:35:42;;;;;;;2.13;1.60;;;19.70;58.70;;;;;;6270764;28;20042;-68
2022/11/18 02:38:47;;;;;;;2.10;1.70;;;19.60;58.70;;;;;;6271097;28;20023;-68
2022/11/18 02:41:48;;;;;;;;;;;19.70;58.70;;;;;;6271087;28;20025;-67
2022/11/18 02:44:55;;;;;;;2.30;1.50;;;19.70;58.70;;;;;;6271140;28;19908;-68
2022/11/18 02:48:01;;;;;;;2.15;1.77;;;19.70;58.70;;;;;;6285794;28;20125;-68
2022/11/18 02:51:05;;;;;;;1.63;1.50;;;19.70;58.80;;;;;;6270763;28;20025;-68
2022/11/18 02:54:07;;;;;;;2.03;1.70;;;19.70;58.70;;;;;;6270170;28;20576;-67
2022/11/18 02:57:08;;;;;;;2.40;1.90;;;19.60;58.70;;;;;;6270739;28;20032;-68
2022/11/18 03:00:10;;;;;;;2.20;1.80;;;19.70;58.70;;;;;;6270608;28;20060;-68
2022/11/18 03:03:34;;;;;;;2.03;1.75;;;19.60;58.70;;;;;;6270539;28;20029;-68
2022/11/18 03:06:39;;;;;;;2.00;1.67;;;19.70;58.70;;;;;;6270232;28;20029;-69
2022/11/18 03:09:41;;;;;;;;;;;19.60;59.00;;;;;;6270598;28;20016;-68
2022/11/18 03:12:47;;;;;;;2.47;1.80;;;19.70;58.70;;;;;;6270245;28;19951;-68
2022/11/18 03:15:59;;;;;;;2.42;1.65;;;19.60;58.70;;;;;;6269351;28;20032;-68
2022/11/18 03:19:25;;;;;;;2.00;1.40;;;19.70;58.70;;;;;;6270027;28;20029;-68
2022/11/18 03:22:35;;;;;;;;;;;19.70;58.70;;;;;;6270636;28;20392;-69
2022/11/18 03:25:45;;;;;;;2.13;1.70;;;19.70;58.70;;;;;;6269891;28;19974;-68
2022/11/18 03:28:55;;;;;;;3.45;1.85;;;19.70;58.70;;;;;;6269875;28;20032;-68
2022/11/18 03:32:04;;;;;;;1.90;1.70;;;19.70;58.70;;;;;;6270056;28;20029;-69
2022/11/18 03:35:11;;;;;;;2.28;1.83;;;19.70;58.70;;;;;;6268034;28;20116;-68
2022/11/18 03:38:26;;;;;;;3.03;1.80;;;19.70;58.70;;;;;;6269813;28;20591;-68
2022/11/18 03:41:30;;;;;;;2.67;1.75;;;19.70;58.70;;;;;;6268348;28;20600;-67
2022/11/18 03:44:35;;;;;;;2.40;1.70;;;19.70;58.80;;;;;;6268774;28;20223;-68
2022/11/18 03:47:41;;;;;;;2.08;1.80;;;19.60;58.60;;;;;;6270039;28;20059;-69
2022/11/18 03:51:01;;;;;;;2.35;1.80;;;19.70;58.70;;;;;;6269470;28;20040;-68
2022/11/18 03:54:12;;;;;;;2.35;1.85;;;19.70;58.70;;;;;;6268939;28;20535;-68
2022/11/18 03:57:39;;;;;;;2.65;1.85;;;19.70;58.70;;;;;;6269316;28;20515;-68
2022/11/18 04:00:44;;;;;;;2.10;1.73;;;19.70;58.70;;;;;;6268329;28;20107;-68
2022/11/18 04:03:45;;;;;;;;;;;19.70;58.70;;;;;;6269722;28;20033;-68
2022/11/18 04:07:19;;;;;;;2.20;1.60;;;19.60;58.60;;;;;;6269371;28;19905;-68
2022/11/18 04:10:31;;;;;;;2.15;1.70;;;19.70;58.70;;;;;;6269193;28;20503;-67
2022/11/18 04:13:35;;;;;;;1.90;1.60;;;19.70;58.70;;;;;;6268954;28;20708;-68
2022/11/18 04:16:41;;;;;;;2.00;1.70;;;19.70;58.70;;;;;;6269163;28;20059;-68
2022/11/18 04:19:42;;;;;;;1.85;1.60;;;19.60;58.70;;;;;;6268407;28;20028;-67
2022/11/18 04:22:43;;;;;;;2.28;1.45;;;19.70;58.70;;;;;;6268756;28;20029;-68
2022/11/18 04:25:44;;;;;;;2.28;1.75;;;19.70;58.70;;;;;;6268090;28;20025;-68
2022/11/18 04:28:44;;;;;;;2.17;1.70;;;19.70;59.40;;;;;;6268283;28;20082;-68
2022/11/18 04:31:45;;;;;;;2.15;1.73;;;19.70;58.70;;;;;;6268444;28;20024;-67
2022/11/18 04:34:45;;;;;;;1.98;1.60;;;19.70;58.70;;;;;;6268288;28;20029;-68
2022/11/18 04:37:46;;;;;;;2.13;1.70;;;19.70;58.70;;;;;;6268380;28;20037;-68
2022/11/18 04:40:47;;;;;;;2.15;1.83;;;19.70;58.70;;;;;;6267966;28;20503;-68
2022/11/18 04:43:47;;;;;;;2.88;1.92;;;19.70;58.60;;;;;;6267941;28;20079;-68
2022/11/18 04:46:48;;;;;;;3.22;2.00;;;19.70;58.70;;;;;;6267947;28;20099;-68
2022/11/18 04:49:48;;;;;;;1.95;1.55;;;19.60;58.60;;;;;;6268066;28;20074;-68
2022/11/18 04:52:49;;;;;;;2.40;1.75;;;19.70;58.60;;;;;;6267768;28;20491;-69
2022/11/18 04:55:49;;;;;;;1.92;1.58;;;19.60;58.60;;;;;;6267693;28;20504;-67
2022/11/18 04:58:50;;;;;;;2.47;1.63;;;19.60;58.60;;;;;;6267436;28;20033;-67
2022/11/18 05:01:52;;;;;;;1.90;1.70;;;19.60;58.60;;;;;;6267993;28;20021;-68
2022/11/18 05:04:53;;;;;;;2.92;1.75;;;19.70;58.70;;;;;;6267530;28;20472;-68
2022/11/18 05:07:53;;;;;;;2.67;2.00;;;19.70;58.70;;;;;;6268298;28;20032;-68
2022/11/18 05:12:47;;;;;;;2.25;1.85;;;19.70;58.70;;;;;;6267702;28;20154;-68
2022/11/18 05:14:14;;;;;;;2.75;2.30;;;19.70;58.70;;;;;;6267346;28;20035;-68
2022/11/18 05:17:15;;;;;;;3.03;1.90;;;19.70;58.70;;;;;;6267581;28;20453;-69
2022/11/18 05:20:16;;;;;;;2.42;1.90;;;19.70;58.70;;;;;;6266808;28;20037;-68
2022/11/18 05:23:16;;;;;;;2.78;1.92;;;19.70;58.70;;;;;;6266452;28;20031;-68
2022/11/18 05:26:17;;;;;;;2.47;1.85;;;19.70;58.70;;;;;;6266897;28;20249;-68
2022/11/18 05:29:19;;;;;;;2.42;2.13;;;19.60;58.60;;;;;;6267706;28;20033;-68
2022/11/18 05:32:19;;;;;;;3.08;1.95;;;19.70;58.70;;;;;;6267453;28;20021;-68
2022/11/18 05:35:20;;;;;;;2.53;1.83;;;19.70;58.60;;;;;;6267226;28;20124;-68
2022/11/18 05:38:20;;;;;;;2.22;1.80;;;19.70;58.70;;;;;;6267836;28;20032;-67
2022/11/18 05:44:40;;;;;;;2.35;1.90;;;19.70;58.70;;;;;;6272298;28;20020;-68
2022/11/18 05:47:58;;;;;;;2.17;1.80;;;19.70;58.70;;;;;;6272131;28;20028;-69
2022/11/18 05:50:59;;;;;;;4.05;1.92;;;19.70;58.70;;;;;;6272108;28;20032;-68
2022/11/18 05:54:03;;;;;;;2.80;1.88;;;19.70;58.70;;;;;;6271798;28;20499;-68
2022/11/18 05:57:04;;;;;;;2.75;2.30;;;19.70;58.70;;;;;;6271833;28;20031;-67
2022/11/18 06:00:05;;;;;;;3.30;2.10;;;19.70;58.70;;;;;;6272010;28;20017;-68
2022/11/18 06:03:12;;;;;;;2.22;1.80;;;19.70;58.70;;;;;;6252575;28;20047;-68
2022/11/18 06:06:15;;;;;;;2.20;1.70;;;19.70;58.70;;;;;;6262634;28;20013;-69
2022/11/18 06:09:19;;;;;;;2.25;1.83;;;19.70;58.70;;;;;;6271144;28;20032;-69
2022/11/18 06:12:26;;;;;;;2.72;1.92;;;19.70;58.70;;;;;;6243519;28;20056;-69
2022/11/18 06:15:32;;;;;;;2.33;1.80;;;19.70;58.60;;;;;;6261221;28;20462;-67
2022/11/18 06:18:34;;;;;;;1.90;1.70;;;19.70;58.60;;;;;;6267375;28;20021;-68
2022/11/18 06:21:35;;;;;;;2.25;1.70;;;19.70;58.60;;;;;;6270235;28;20082;-68
2022/11/18 06:24:37;;;;;;;2.25;1.77;;;19.70;58.70;;;;;;6260721;28;20021;-69
2022/11/18 06:27:37;;;;;;;3.10;2.40;;;19.70;58.60;;;;;;6270236;28;20044;-68
2022/11/18 06:30:38;;;;;;;2.50;1.85;;;19.70;58.60;;;;;;6269990;28;20036;-67
2022/11/18 06:33:38;;;;;;;2.47;2.00;;;19.70;58.60;;;;;;6270001;28;20036;-68
2022/11/18 06:36:39;;;;;;;2.85;2.10;;;19.70;58.60;;;;;;6270496;28;20496;-68
2022/11/18 06:39:40;;;;;;;3.28;1.98;;;19.70;58.60;;;;;;6269856;28;20099;-68
2022/11/18 06:49:19;;;;;;;2.53;1.80;;;19.70;58.60;;;;;;6269100;28;20032;-68
2022/11/18 06:52:21;;;;;;;2.55;2.10;;;19.70;58.70;;;;;;6259457;28;20118;-67
2022/11/18 06:55:22;;;;;;;2.63;1.92;;;19.70;58.70;;;;;;6265231;28;20134;-68
2022/11/18 06:58:22;;;;;;;2.55;1.85;;;19.70;58.70;;;;;;6269996;28;20361;-68
2022/11/18 07:01:25;;;;;;;3.05;2.30;;;19.70;58.70;;;;;;6263977;28;20029;-68
2022/11/18 07:04:26;;;;;;;2.05;1.52;;;19.70;58.70;;;;;;6263193;28;20399;-67
2022/11/18 07:07:27;;;;;;;2.80;1.95;;;19.70;58.70;;;;;;6264135;28;20029;-67
2022/11/18 07:10:27;;;;;;;3.03;1.70;;;19.70;58.70;;;;;;6247083;28;20552;-67
2022/11/18 07:13:28;;;;;;;2.88;1.80;;;19.70;58.70;;;;;;6270862;28;20029;-68
2022/11/18 07:16:28;;;;;;;4.68;1.98;;;19.70;58.70;;;;;;6257660;28;20042;-68
2022/11/18 07:19:29;;;;;;;3.08;2.20;;;19.70;58.60;;;;;;6257939;28;20021;-67
2022/11/18 07:22:29;;;;;;;3.00;2.28;;;19.70;58.60;;;;;;6270979;28;20100;-68
2022/11/18 07:25:30;;;;;;;2.45;1.70;;;19.70;58.60;;;;;;6260944;28;20031;-68
2022/11/18 07:28:31;;;;;;;3.15;2.10;;;19.70;58.50;;;;;;6245270;28;20025;-68
2022/11/18 07:31:34;;;;;;;2.60;1.85;;;19.70;58.50;;;;;;6247049;28;20048;-68
2022/11/18 07:34:34;;;;;;;4.60;1.80;;;19.80;58.50;;;;;;6249256;28;20033;-67
2022/11/18 07:37:35;;;;;;;2.33;1.90;;;19.80;58.40;;;;;;6251884;28;20045;-68
2022/11/18 07:40:36;;;;;;;3.30;2.10;;;19.90;58.40;;;;;;6256901;28;20088;-69
2022/11/18 07:43:37;;;;;;;4.55;2.28;;;19.90;58.40;;;;;;6257336;28;20049;-69
2022/11/18 07:46:38;;;;;;;4.03;2.10;;;19.90;58.30;;;;;;6248612;28;20020;-68
2022/11/18 07:49:38;;;;;;;2.60;1.90;;;19.90;58.30;;;;;;6253654;28;20026;-68
2022/11/18 07:52:39;;;;;;;3.17;2.25;;;19.90;58.30;;;;;;6251356;28;20136;-68
2022/11/18 07:55:39;;;;;;;5.05;2.22;;;19.90;58.30;;;;;;6265115;28;20030;-68
2022/11/18 07:58:41;;;;;;;2.83;1.80;;;20.00;58.30;;;;;;6253128;28;20029;-68
2022/11/18 08:01:41;;;;;;;2.58;1.90;;;20.00;58.30;;;;;;6247807;28;20079;-68
2022/11/18 08:04:42;;;;;;;3.33;2.13;;;20.00;58.30;;;;;;6253036;28;21374;-66
2022/11/18 08:07:43;;;;;;;4.35;2.40;;;20.00;58.30;;;;;;6248478;28;20036;-67
2022/11/18 08:10:43;;;;;;;3.22;2.13;;;20.00;58.30;;;;;;6249310;28;20028;-67
2022/11/18 08:13:44;;;;;;;4.70;1.83;;;20.00;58.30;;;;;;6245456;28;20029;-68
2022/11/18 08:16:44;;;;;;;3.45;2.00;;;20.00;58.30;;;;;;6264926;28;20100;-69
2022/11/18 08:19:45;;;;;;;3.97;2.10;;;20.00;58.10;;;;;;6268795;28;20032;-68
2022/11/18 08:22:46;;;;;;;4.55;2.40;;;20.00;58.20;;;;;;6269614;28;20025;-68
2022/11/18 08:25:46;;;;;;;3.20;2.05;;;20.00;58.20;;;;;;6269606;28;20166;-69
2022/11/18 08:28:47;;;;;;;2.90;2.03;;;20.00;58.40;;;;;;6270073;28;20032;-69
2022/11/18 08:31:48;;;;;;;3.63;1.90;;;19.90;58.40;;;;;;6269036;28;20021;-68
2022/11/18 08:34:50;;;;;;;4.75;2.00;;;19.90;58.40;;;;;;6267669;28;20048;-69
2022/11/18 08:37:50;;;;;;;5.40;2.10;;;19.90;58.40;;;;;;6269784;28;20021;-69
2022/11/18 08:40:51;;;;;;;4.53;2.20;;;19.90;58.50;;;;;;6269018;28;20028;-68
2022/11/18 08:43:51;;;;;;;3.65;2.30;;;19.90;58.50;;;;;;6269548;28;20045;-68
2022/11/18 08:46:52;;;;;;;4.30;2.05;;;19.90;58.50;;;;;;6253485;28;21482;-69
2022/11/18 08:49:52;;;;;;;3.33;2.30;;;19.90;58.60;;;;;;6246297;28;20112;-68
2022/11/18 08:52:53;;;;;;;3.28;2.08;;;19.90;58.60;;;;;;6268794;28;20514;-69
2022/11/18 08:55:58;;;;;;;2.88;2.22;;;19.90;58.60;;;;;;6269162;28;20246;-68
2022/11/18 08:58:59;;;;;;;;;;;19.90;58.70;;;;;;6269736;28;20021;-68
2022/11/18 09:01:59;;;;;;;5.00;2.40;;;19.90;58.60;;;;;;6269218;28;20015;-67
2022/11/18 09:05:00;;;;;;;3.75;2.35;;;19.90;58.70;;;;;;6265331;28;20029;-68
2022/11/18 09:08:00;;;;;;;4.07;2.28;;;19.90;58.70;;;;;;6267285;28;20052;-68
2022/11/18 09:11:16;;;;;;;3.17;2.00;;;19.90;58.60;;;;;;6265813;28;20060;-67
2022/11/18 09:14:17;;;;;;;3.83;2.28;;;19.90;58.70;;;;;;6258230;28;20029;-67
2022/11/18 09:17:17;;;;;;;5.13;2.10;;;19.90;58.60;;;;;;6264092;28;20438;-67
2022/11/18 09:20:18;;;;;;;4.65;2.40;;;20.00;58.70;;;;;;6268518;28;20025;-68
2022/11/18 09:23:19;;;;;;;4.13;2.05;;;20.00;58.70;;;;;;6268348;28;20059;-69
2022/11/18 09:26:22;;;;;;;10.80;2.55;;;20.00;58.70;;;;;;6268020;28;20406;-68
2022/11/18 09:29:25;;;;;;;11.63;2.78;;;19.90;58.60;;;;;;6268937;28;20069;-69
2022/11/18 09:32:25;;;;;;;18.25;2.83;;;19.90;58.60;;;;;;6268386;28;20029;-69
2022/11/18 09:35:26;;;;;;;23.52;3.35;;;19.90;58.70;;;;;;6268733;28;20613;-68
2022/11/18 09:38:31;;;;;;;11.68;3.63;;;19.90;58.70;;;;;;6267909;28;20025;-68
2022/11/18 09:41:43;;;;;;;;;;;19.90;58.80;;;;;;6268516;28;20040;-69
2022/11/18 09:45:12;;;;;;;10.80;2.58;;;19.90;58.80;;;;;;6268218;28;19938;-67
2022/11/18 09:48:20;;;;;;;14.82;3.08;;;19.90;58.70;;;;;;6267909;28;20040;-68
2022/11/18 09:51:25;;;;;;;7.10;2.80;;;19.90;58.70;;;;;;6268437;28;20052;-69
2022/11/18 09:54:32;;;;;;;9.18;2.53;;;19.90;58.70;;;;;;6268746;28;20029;-68
2022/11/18 09:57:50;;;;;;;6.95;2.90;;;19.90;58.70;;;;;;6267848;28;20365;-68
2022/11/18 10:00:51;;;;;;;8.63;2.58;;;19.90;58.80;;;;;;6268429;28;20032;-69
2022/11/18 10:03:52;;;;;;;7.10;2.67;;;19.90;58.70;;;;;;6268399;28;20021;-68
2022/11/18 10:06:52;;;;;;;6.10;2.40;;;19.90;58.70;;;;;;6267862;28;20064;-68
2022/11/18 10:09:55;;;;;;;7.30;2.70;;;19.90;58.70;;;;;;6268146;28;20511;-69
2022/11/18 10:13:08;;;;;;;6.47;2.30;;;19.90;58.80;;;;;;6268745;28;20029;-69
2022/11/18 10:16:21;;;;;;;8.18;2.05;;;19.90;59.50;;;;;;6267951;28;20029;-69
2022/11/18 10:19:50;;;;;;;6.35;2.53;;;19.90;58.80;;;;;;6267740;28;20025;-69
2022/11/18 10:23:11;;;;;;;6.43;2.80;;;19.90;58.80;;;;;;6267294;28;20028;-67
2022/11/18 10:26:12;;;;;;;8.25;2.72;;;19.90;58.80;;;;;;6258538;28;20025;-68
2022/11/18 10:29:12;;;;;;;7.53;2.28;;;19.90;58.80;;;;;;6263907;28;20106;-69
2022/11/18 10:32:15;;;;;;;8.50;2.35;;;19.90;58.70;;;;;;6272625;28;20021;-69
2022/11/18 10:35:31;;;;;;;5.22;2.60;;;19.90;58.70;;;;;;6261323;28;20045;-68
2022/11/18 10:38:31;;;;;;;;;;;19.90;58.70;;;;;;6272483;28;20029;-68
2022/11/18 10:42:03;;;;;;;8.90;2.20;;;19.90;58.70;;;;;;6272798;28;19912;-68
2022/11/18 10:45:22;;;;;;;5.38;2.40;;;19.90;58.60;;;;;;6280590;28;20065;-68
2022/11/18 10:48:23;;;;;;;6.75;2.30;;;19.90;58.60;;;;;;6272076;28;20025;-67
2022/11/18 10:51:24;;;;;;;8.43;2.20;;;19.90;58.60;;;;;;6272098;28;20084;-69
2022/11/18 10:54:24;;;;;;;5.15;2.30;;;19.90;58.60;;;;;;6271500;28;20326;-69
2022/11/18 10:57:38;;;;;;;5.00;2.28;;;19.80;58.50;;;;;;6271608;28;20119;-68
2022/11/18 11:00:43;;;;;;;6.47;2.28;;;19.90;58.60;;;;;;6247318;28;20029;-69
2022/11/18 11:03:58;;;;;;;7.67;2.10;;;19.90;58.50;;;;;;6256012;28;20048;-68
2022/11/18 11:07:12;;;;;;;;;;;19.90;58.60;;;;;;6257382;28;20087;-68
2022/11/18 11:10:21;;;;;;;2.53;1.80;;;19.90;58.40;;;;;;6271006;28;20294;-69
2022/11/18 11:13:29;;;;;;;7.10;2.30;;;19.90;58.60;;;;;;6269720;28;20388;-67
2022/11/18 11:16:31;;;;;;;11.27;2.72;;;19.90;58.50;;;;;;6271061;28;20033;-68
2022/11/18 11:19:40;;;;;;;5.47;2.10;;;19.90;58.40;;;;;;6271524;28;20031;-69
2022/11/18 11:22:41;;;;;;;5.75;2.05;;;19.80;58.40;;;;;;6246312;28;20570;-68
2022/11/18 11:25:50;;;;;;;6.35;2.15;;;19.90;58.50;;;;;;6269248;28;20545;-68
2022/11/18 11:29:33;;;;;;;8.02;2.47;;;19.90;58.50;;;;;;6270716;28;20118;-68
2022/11/18 11:33:04;;;;;;;6.88;1.83;;;19.90;58.50;;;;;;6270280;28;20076;-68
2022/11/18 11:36:24;;;;;;;5.57;2.25;;;19.90;58.50;;;;;;6260494;28;20021;-67
2022/11/18 11:39:46;;;;;;;5.22;2.15;;;19.90;58.40;;;;;;6270761;28;20453;-69
2022/11/18 11:43:18;;;;;;;5.20;1.98;;;19.80;58.40;;;;;;6270979;28;20025;-68
2022/11/18 11:46:18;;;;;;;7.60;2.58;;;19.90;58.50;;;;;;6271132;28;20448;-68
2022/11/18 11:49:32;;;;;;;5.18;2.10;;;19.90;58.50;;;;;;6270572;28;20079;-69
2022/11/18 11:52:53;;;;;;;3.60;1.92;;;19.90;58.50;;;;;;6268826;28;20115;-69
2022/11/18 11:56:11;;;;;;;6.47;2.25;;;19.90;58.40;;;;;;6270481;28;20041;-68
2022/11/18 11:59:43;;;;;;;8.90;2.10;;;19.90;58.80;;;;;;6270562;28;20116;-68
2022/11/18 12:03:10;;;;;;;5.38;2.38;;;19.80;58.30;;;;;;6270373;28;20021;-69
2022/11/18 12:06:11;;;;;;;3.05;1.83;;;19.90;58.40;;;;;;6264300;28;20391;-68
2022/11/18 12:09:31;;;;;;;3.10;2.10;;;19.90;58.50;;;;;;6270207;28;20040;-68
2022/11/18 12:12:53;;;;;;;3.92;2.45;;;19.80;58.50;;;;;;6269801;28;20079;-68
2022/11/18 12:16:04;;;;;;;2.42;1.95;;;19.80;57.20;;;;;;6269483;28;20033;-69
2022/11/18 12:19:20;;;;;;;6.95;2.70;;;19.70;57.90;;;;;;6269794;28;20033;-69
2022/11/18 12:22:20;;;;;;;9.93;2.30;;;19.70;56.30;;;;;;6270574;28;20028;-68
2022/11/18 12:25:50;;;;;;;5.40;2.53;;;19.70;56.00;;;;;;6268821;28;20388;-68
2022/11/18 12:28:51;;;;;;;4.10;2.60;;;19.70;53.40;;;;;;6245615;28;20068;-69
2022/11/18 12:32:00;;;;;;;3.75;2.50;;;19.70;52.60;;;;;;6266517;28;20033;-68
2022/11/18 12:35:22;;;;;;;4.45;2.15;;;19.80;53.40;;;;;;6269578;28;20039;-68
2022/11/18 12:38:29;;;;;;;6.00;2.40;;;19.80;53.90;;;;;;6237292;28;20131;-68
2022/11/18 12:45:51;;;;;;;6.28;2.05;;;19.80;54.60;;;;;;6256231;28;20029;-67
2022/11/18 12:48:51;;;;;;;4.75;2.17;;;19.80;55.10;;;;;;6256898;28;20437;-68
2022/11/18 12:51:54;;;;;;;3.55;2.28;;;19.80;55.30;;;;;;6269084;28;20049;-68
2022/11/18 12:54:59;;;;;;;3.10;1.90;;;19.80;55.20;;;;;;6268622;28;20037;-67
2022/11/18 12:58:00;;;;;;;5.72;1.77;;;19.80;55.40;;;;;;6269286;28;20020;-68
2022/11/18 13:01:10;;;;;;;3.70;2.20;;;19.80;55.50;;;;;;6269154;28;20119;-68
2022/11/18 13:04:13;;;;;;;4.57;2.13;;;19.80;55.50;;;;;;6268965;28;20056;-67
2022/11/18 13:10:39;;;;;;;3.63;1.90;;;19.80;55.70;;;;;;6268974;28;20029;-68
2022/11/18 13:13:41;;;;;;;4.60;1.90;;;19.90;56.00;;;;;;6268455;28;20025;-68
2022/11/18 13:20:02;;;;;;;3.97;1.70;;;19.90;56.20;;;;;;6268669;28;20041;-67
2022/11/18 13:26:31;;;;;;;3.17;1.80;;;19.90;56.30;;;;;;6252563;28;20045;-68
2022/11/18 13:29:44;;;;;;;3.95;2.40;;;19.90;56.40;;;;;;6268149;28;20014;-68
2022/11/18 13:32:46;;;;;;;7.03;2.55;;;19.90;56.40;;;;;;6268041;28;20029;-68
2022/11/18 13:35:47;;;;;;;2.63;1.52;;;19.90;56.10;;;;;;6268080;28;20561;-67
2022/11/18 13:39:19;;;;;;;4.10;1.92;;;19.90;56.20;;;;;;6268915;28;20029;-69
2022/11/18 13:42:24;;;;;;;3.55;1.80;;;19.80;56.50;;;;;;6267930;28;20033;-68
2022/11/18 13:45:27;;;;;;;3.58;1.60;;;19.80;56.50;;;;;;6267626;28;20033;-68
2022/11/18 13:48:28;;;;;;;3.65;1.88;;;19.90;56.60;;;;;;6268189;28;20082;-69
2022/11/18 13:51:29;;;;;;;3.20;1.90;;;19.90;56.60;;;;;;6268074;28;20056;-68
2022/11/18 13:54:30;;;;;;;2.88;1.40;;;19.90;56.40;;;;;;6258464;28;20250;-68
2022/11/18 13:57:30;;;;;;;6.88;2.00;;;19.90;56.70;;;;;;6265930;28;20024;-68
2022/11/18 14:00:33;;;;;;;3.42;1.83;;;19.90;56.70;;;;;;6269976;28;20092;-70
2022/11/18 14:03:54;;;;;;;5.90;1.60;;;19.90;56.70;;;;;;6275074;28;20033;-69
2022/11/18 14:07:23;;;;;;;3.17;1.70;;;20.00;56.70;;;;;;6286128;28;20060;-69
2022/11/18 14:10:41;;;;;;;2.45;1.50;;;20.00;56.60;;;;;;6261241;28;20029;-70
2022/11/18 14:13:53;;;;;;;3.65;1.80;;;20.00;56.60;;;;;;6274540;28;20025;-69
2022/11/18 14:17:16;;;;;;;3.45;1.52;;;20.10;56.60;;;;;;6273970;28;20395;-68
2022/11/18 14:20:18;;;;;;;2.83;1.48;;;20.10;56.60;;;;;;6274385;28;20488;-68
2022/11/18 14:23:26;;;;;;;3.30;1.70;;;20.10;56.80;;;;;;6271436;28;20100;-69
2022/11/18 14:26:30;;;;;;;3.15;1.80;;;20.00;56.60;;;;;;6271628;28;20361;-69
2022/11/18 14:29:31;;;;;;;2.67;1.53;;;20.00;56.60;;;;;;6261761;28;20033;-69
2022/11/18 14:32:31;;;;;;;5.60;1.33;;;20.00;56.70;;;;;;6273093;28;20345;-70
2022/11/18 14:35:32;;;;;;;7.38;1.73;;;20.00;56.70;;;;;;6273377;28;20483;-69
2022/11/18 14:38:54;;;;;;;2.92;1.50;;;20.00;56.80;;;;;;6271773;28;20036;-69
2022/11/18 14:41:56;;;;;;;2.42;1.30;;;20.00;56.80;;;;;;6271238;28;20606;-69
2022/11/18 14:44:56;;;;;;;3.85;1.67;;;20.00;56.80;;;;;;6273059;28;20079;-69
2022/11/18 14:47:57;;;;;;;2.13;1.50;;;20.00;56.80;;;;;;6273419;28;20025;-69
2022/11/18 14:50:58;;;;;;;2.72;1.33;;;20.00;56.80;;;;;;6272667;28;20112;-69
2022/11/18 14:53:59;;;;;;;5.03;1.35;;;20.00;56.80;;;;;;6272365;28;20064;-70
2022/11/18 14:57:02;;;;;;;3.20;1.50;;;20.00;56.90;;;;;;6272728;28;20033;-69
2022/11/18 15:00:04;;;;;;;3.50;1.52;;;20.00;56.90;;;;;;6269096;28;20028;-69
2022/11/18 15:03:04;;;;;;;6.85;1.50;;;20.00;56.90;;;;;;6271060;28;20014;-68
2022/11/18 15:06:13;;;;;;;5.22;1.48;;;20.00;56.80;;;;;;6270375;28;20499;-69
2022/11/18 15:09:14;;;;;;;3.65;1.50;;;20.00;56.80;;;;;;6271449;28;20021;-69
2022/11/18 15:12:15;;;;;;;3.55;1.50;;;20.00;56.90;;;;;;6269812;28;20051;-68
2022/11/18 15:15:16;;;;;;;2.72;1.35;;;19.90;56.80;;;;;;6270572;28;20033;-69
2022/11/18 15:18:17;;;;;;;1.40;1.20;;;19.90;56.30;;;;;;6270439;28;20508;-68
2022/11/18 15:21:18;;;;;;;4.70;1.90;;;19.90;56.20;;;;;;6269845;28;20045;-69
2022/11/18 15:24:19;;;;;;;1.60;1.05;;;20.00;56.30;;;;;;6270093;28;20118;-70
2022/11/18 15:27:19;;;;;;;1.88;1.30;;;20.00;56.50;;;;;;6270564;28;20483;-69
2022/11/18 15:30:20;;;;;;;2.65;1.42;;;20.00;56.70;;;;;;6269965;28;20539;-70
2022/11/18 15:33:21;;;;;;;2.58;1.45;;;19.90;56.60;;;;;;6270198;28;20083;-69
2022/11/18 15:36:24;;;;;;;3.70;1.50;;;19.90;56.40;;;;;;6270280;28;20037;-68
2022/11/18 15:39:25;;;;;;;4.00;1.50;;;19.90;56.10;;;;;;6270160;28;20025;-69
2022/11/18 15:42:26;;;;;;;3.67;1.55;;;19.90;56.30;;;;;;6270231;28;20442;-70
2022/11/18 15:45:26;;;;;;;2.42;1.63;;;19.90;56.30;;;;;;6269953;28;20063;-69
2022/11/18 15:48:27;;;;;;;3.17;1.38;;;19.90;56.30;;;;;;6269005;28;20566;-69
2022/11/18 15:51:29;;;;;;;3.60;1.42;;;19.90;56.50;;;;;;6268918;28;20396;-69
2022/11/18 15:54:29;;;;;;;1.83;1.35;;;19.90;56.40;;;;;;6269447;28;20029;-69
2022/11/18 15:57:30;;;;;;;1.67;1.30;;;19.90;56.50;;;;;;6269875;28;20470;-70
2022/11/18 16:00:30;;;;;;;3.30;1.52;;;19.90;56.50;;;;;;6268223;28;20041;-68
2022/11/18 16:03:32;;;;;;;4.13;1.40;;;19.90;56.50;;;;;;6269706;28;20112;-69
2022/11/18 16:06:33;;;;;;;15.02;2.05;;;19.90;56.60;;;;;;6268903;28;20021;-68
2022/11/18 16:12:53;;;;;;;2.40;1.48;;;19.90;56.60;;;;;;6265157;28;20057;-69
2022/11/18 16:15:54;;;;;;;2.03;1.30;;;19.90;56.50;;;;;;6280896;28;20035;-69
2022/11/18 16:19:00;;;;;;;6.07;1.20;;;19.90;56.50;;;;;;6268752;28;20071;-69
2022/11/18 16:22:00;;;;;;;2.95;1.33;;;19.90;56.50;;;;;;6268332;28;20028;-69
2022/11/18 16:25:01;;;;;;;2.58;1.40;;;19.90;56.60;;;;;;6267827;28;20052;-68
2022/11/18 16:28:02;;;;;;;5.55;1.20;;;19.90;56.70;;;;;;6268734;28;20052;-69
2022/11/18 16:34:26;;;;;;;3.00;1.30;;;19.90;56.60;;;;;;6268157;28;20029;-69
2022/11/18 16:37:27;;;;;;;2.75;1.30;;;19.90;56.50;;;;;;6259201;28;20090;-69
2022/11/18 16:40:27;;;;;;;2.67;1.17;;;19.90;56.70;;;;;;6268315;28;20029;-69
2022/11/18 16:43:28;;;;;;;2.03;1.23;;;19.90;56.60;;;;;;6268023;28;20040;-68